createdAt,value
2023-04-09T00:02:22.026Z,4.12
2023-04-09T00:05:08.029Z,3.94
2023-04-09T00:07:54.097Z,3.87
2023-04-09T00:10:40.121Z,4.07
2023-04-09T00:13:37.951Z,2.89
2023-04-09T00:16:25.038Z,3.87
2023-04-09T00:19:11.683Z,4.00
2023-04-09T00:21:57.155Z,3.98
2023-04-09T00:24:42.554Z,3.87
2023-04-09T00:27:27.763Z,3.96
2023-04-09T00:30:13.182Z,2.53
2023-04-09T00:32:58.729Z,3.68
2023-04-09T00:35:44.214Z,3.96
2023-04-09T00:38:29.760Z,4.00
2023-04-09T00:41:15.299Z,2.84
2023-04-09T00:44:00.704Z,4.08
2023-04-09T00:46:46.076Z,2.71
2023-04-09T00:49:31.553Z,4.06
2023-04-09T00:52:17.208Z,3.43
2023-04-09T00:55:05.296Z,3.79
2023-04-09T00:57:50.831Z,3.67
2023-04-09T01:00:36.382Z,3.51
2023-04-09T01:03:21.894Z,3.43
2023-04-09T01:06:32.826Z,2.94
2023-04-09T01:09:39.094Z,2.98
2023-04-09T01:12:34.045Z,3.03
2023-04-09T01:15:25.530Z,1.41
2023-04-09T01:18:19.421Z,2.68
2023-04-09T01:21:17.969Z,2.75
2023-04-09T01:24:23.424Z,2.75
2023-04-09T01:27:09.635Z,2.64
2023-04-09T01:30:18.095Z,2.68
2023-04-09T01:33:06.124Z,1.98
2023-04-09T01:35:54.004Z,2.74
2023-04-09T01:38:42.140Z,1.45
2023-04-09T01:41:28.160Z,2.74
2023-04-09T01:44:14.214Z,2.31
2023-04-09T01:47:00.693Z,1.95
2023-04-09T01:49:46.308Z,2.59
2023-04-09T01:52:31.821Z,1.40
2023-04-09T01:55:17.396Z,1.47
2023-04-09T01:58:02.724Z,2.72
2023-04-09T02:00:49.268Z,2.44
2023-04-09T02:03:39.766Z,2.69
2023-04-09T02:06:40.081Z,2.24
2023-04-09T02:09:29.603Z,3.00
2023-04-09T02:12:19.168Z,1.88
2023-04-09T02:15:07.332Z,3.05
2023-04-09T02:17:53.554Z,3.03
2023-04-09T02:20:38.830Z,2.96
2023-04-09T02:23:24.960Z,2.62
2023-04-09T02:26:10.627Z,2.88
2023-04-09T02:28:55.937Z,2.86
2023-04-09T02:31:41.199Z,2.82
2023-04-09T02:34:26.921Z,1.70
2023-04-09T02:37:12.529Z,1.52
2023-04-09T02:39:57.996Z,2.67
2023-04-09T02:42:43.384Z,2.32
2023-04-09T02:45:29.224Z,2.52
2023-04-09T02:48:14.636Z,2.73
2023-04-09T02:51:04.528Z,2.69
2023-04-09T02:53:49.876Z,1.26
2023-04-09T02:56:35.573Z,2.01
2023-04-09T02:59:20.881Z,1.16
2023-04-09T03:02:06.453Z,2.34
2023-04-09T03:04:53.108Z,1.25
2023-04-09T03:07:38.660Z,2.22
2023-04-09T03:10:24.063Z,2.64
2023-04-09T03:13:09.698Z,1.78
2023-04-09T03:15:55.038Z,2.77
2023-04-09T03:18:40.704Z,2.63
2023-04-09T03:21:27.003Z,2.87
2023-04-09T03:24:12.683Z,1.41
2023-04-09T03:26:59.394Z,2.13
2023-04-09T03:29:45.228Z,2.92
2023-04-09T03:32:32.112Z,2.46
2023-04-09T03:35:17.546Z,1.89
2023-04-09T03:38:04.321Z,2.92
2023-04-09T03:40:50.832Z,2.89
2023-04-09T03:43:36.390Z,2.59
2023-04-09T03:46:22.898Z,1.54
2023-04-09T03:49:08.472Z,2.25
2023-04-09T03:52:00.800Z,2.70
2023-04-09T03:54:54.108Z,2.79
2023-04-09T03:57:42.759Z,1.42
2023-04-09T04:00:32.622Z,2.35
2023-04-09T04:03:47.986Z,2.13
2023-04-09T04:06:40.833Z,2.51
2023-04-09T04:09:45.319Z,1.54
2023-04-09T04:12:35.407Z,1.36
2023-04-09T04:15:28.837Z,1.86
2023-04-09T04:18:15.562Z,2.57
2023-04-09T04:21:15.716Z,2.57
2023-04-09T04:24:06.066Z,2.76
2023-04-09T04:26:51.478Z,1.44
2023-04-09T04:29:38.948Z,2.55
2023-04-09T04:32:37.503Z,1.83
2023-04-09T04:35:27.419Z,1.86
2023-04-09T04:38:16.669Z,1.49
2023-04-09T04:41:02.984Z,2.91
2023-04-09T04:43:49.969Z,1.59
2023-04-09T04:46:40.591Z,2.87
2023-04-09T04:49:26.226Z,2.94
2023-04-09T04:52:11.883Z,1.85
2023-04-09T04:55:01.499Z,2.90
2023-04-09T04:57:47.367Z,1.87
2023-04-09T05:00:32.837Z,1.78
2023-04-09T05:03:21.573Z,1.63
2023-04-09T05:06:32.326Z,3.06
2023-04-09T05:09:22.358Z,2.38
2023-04-09T05:12:24.706Z,3.10
2023-04-09T05:15:11.702Z,2.49
2023-04-09T05:17:58.104Z,3.05
2023-04-09T05:20:43.914Z,1.70
2023-04-09T05:23:29.349Z,2.51
2023-04-09T05:26:14.760Z,3.16
2023-04-09T05:29:08.793Z,3.07
2023-04-09T05:31:55.912Z,2.30
2023-04-09T05:34:50.306Z,1.80
2023-04-09T05:37:35.913Z,3.09
2023-04-09T05:40:21.860Z,3.12
2023-04-09T05:43:08.987Z,2.72
2023-04-09T05:45:58.983Z,3.03
2023-04-09T05:48:44.892Z,3.04
2023-04-09T05:51:30.890Z,2.85
2023-04-09T05:54:20.033Z,3.14
2023-04-09T05:57:05.937Z,3.44
2023-04-09T05:59:54.851Z,3.08
2023-04-09T06:02:41.283Z,3.84
2023-04-09T06:05:26.669Z,4.08
2023-04-09T06:08:13.009Z,4.34
2023-04-09T06:10:59.178Z,4.14
2023-04-09T06:13:44.807Z,4.56
2023-04-09T06:16:30.596Z,4.90
2023-04-09T06:19:21.122Z,5.36
2023-04-09T06:22:11.176Z,4.92
2023-04-09T06:24:56.890Z,5.57
2023-04-09T06:27:42.705Z,4.34
2023-04-09T06:30:28.075Z,5.78
2023-04-09T06:33:14.441Z,5.96
2023-04-09T06:35:59.955Z,5.61
2023-04-09T06:38:45.886Z,5.91
2023-04-09T06:41:32.387Z,6.23
2023-04-09T06:44:17.929Z,6.25
2023-04-09T06:47:03.470Z,6.09
2023-04-09T06:49:49.031Z,6.34
2023-04-09T06:52:34.286Z,6.37
2023-04-09T06:55:19.872Z,6.34
2023-04-09T06:58:05.774Z,6.33
2023-04-09T07:00:51.521Z,6.51
2023-04-09T07:03:37.464Z,6.54
2023-04-09T07:06:23.292Z,6.30
2023-04-09T07:09:08.862Z,6.45
2023-04-09T07:11:54.143Z,6.32
2023-04-09T07:14:39.638Z,5.70
2023-04-09T07:17:25.166Z,6.69
2023-04-09T07:20:10.851Z,7.14
2023-04-09T07:22:56.521Z,5.95
2023-04-09T07:25:42.394Z,7.21
2023-04-09T07:28:27.853Z,6.48
2023-04-09T07:31:14.372Z,6.61
2023-04-09T07:33:59.711Z,7.55
2023-04-09T07:36:45.804Z,7.66
2023-04-09T07:39:31.661Z,7.59
2023-04-09T07:42:17.266Z,7.57
2023-04-09T07:45:03.460Z,8.65
2023-04-09T07:47:49.040Z,8.86
2023-04-09T07:51:06.591Z,9.09
2023-04-09T07:53:53.185Z,9.18
2023-04-09T07:56:38.926Z,9.31
2023-04-09T07:59:25.140Z,9.43
2023-04-09T08:02:14.333Z,9.19
2023-04-09T08:05:00.906Z,9.59
2023-04-09T08:07:46.551Z,9.69
2023-04-09T08:10:35.429Z,9.78
2023-04-09T08:13:24.665Z,9.81
2023-04-09T08:16:12.804Z,9.85
2023-04-09T08:18:58.486Z,9.94
2023-04-09T08:21:44.402Z,9.88
2023-04-09T08:27:48.773Z,10.13
2023-04-09T08:30:34.594Z,10.32
2023-04-09T08:33:19.991Z,9.04
2023-04-09T08:36:09.298Z,9.32
2023-04-09T08:38:56.649Z,10.57
2023-04-09T08:41:46.503Z,10.60
2023-04-09T08:44:32.059Z,10.55
2023-04-09T08:47:20.686Z,10.54
2023-04-09T08:50:06.674Z,10.25
2023-04-09T08:52:53.195Z,10.35
2023-04-09T08:55:38.764Z,10.28
2023-04-09T08:58:24.830Z,10.37
2023-04-09T09:01:19.862Z,10.41
2023-04-09T09:04:07.915Z,10.40
2023-04-09T09:06:55.551Z,10.60
2023-04-09T09:09:59.046Z,10.62
2023-04-09T09:12:44.373Z,11.05
2023-04-09T09:15:31.028Z,10.95
2023-04-09T09:18:18.477Z,10.80
2023-04-09T09:21:17.864Z,11.26
2023-04-09T09:24:17.007Z,11.06
2023-04-09T09:27:03.116Z,11.33
2023-04-09T09:29:49.030Z,11.39
2023-04-09T09:32:35.305Z,11.37
2023-04-09T09:35:21.937Z,11.41
2023-04-09T09:38:07.694Z,11.27
2023-04-09T09:40:54.864Z,11.29
2023-04-09T09:43:42.990Z,11.56
2023-04-09T09:46:31.002Z,11.22
2023-04-09T09:49:16.601Z,11.65
2023-04-09T09:52:10.387Z,11.68
2023-04-09T09:55:03.244Z,11.51
2023-04-09T09:57:53.807Z,11.54
2023-04-09T10:00:41.026Z,11.51
2023-04-09T10:03:29.316Z,11.74
2023-04-09T10:06:15.766Z,11.77
2023-04-09T10:09:06.396Z,11.09
2023-04-09T10:11:53.057Z,11.63
2023-04-09T10:14:41.614Z,11.96
2023-04-09T10:17:28.689Z,11.96
2023-04-09T10:20:29.152Z,11.95
2023-04-09T10:23:25.116Z,12.11
2023-04-09T10:26:10.870Z,12.08
2023-04-09T10:29:13.919Z,12.08
2023-04-09T10:32:07.694Z,12.01
2023-04-09T10:34:59.468Z,11.91
2023-04-09T10:37:50.655Z,11.22
2023-04-09T10:40:56.562Z,11.95
2023-04-09T10:43:43.754Z,11.99
2023-04-09T10:51:35.896Z,12.02
2023-04-09T10:58:13.717Z,12.06
2023-04-09T11:01:13.573Z,12.07
2023-04-09T11:04:22.138Z,11.98
2023-04-09T11:07:09.093Z,12.09
2023-04-09T11:09:55.183Z,12.16
2023-04-09T11:12:43.794Z,12.03
2023-04-09T11:15:34.675Z,12.25
2023-04-09T11:18:27.998Z,12.34
2023-04-09T11:21:14.842Z,12.35
2023-04-09T11:24:01.047Z,12.43
2023-04-09T11:26:49.225Z,12.24
2023-04-09T11:29:36.266Z,12.44
2023-04-09T11:32:22.903Z,12.46
2023-04-09T11:35:15.761Z,12.32
2023-04-09T11:38:02.275Z,12.49
2023-04-09T11:40:49.223Z,11.29
2023-04-09T11:43:36.803Z,12.37
2023-04-09T11:46:26.201Z,12.62
2023-04-09T11:49:13.850Z,12.22
2023-04-09T11:52:01.858Z,12.47
2023-04-09T11:54:54.197Z,12.79
2023-04-09T11:57:46.283Z,12.80
2023-04-09T12:00:35.128Z,12.85
2023-04-09T12:03:33.727Z,12.91
2023-04-09T12:06:25.718Z,11.72
2023-04-09T12:09:14.337Z,12.75
2023-04-09T12:12:01.762Z,12.96
2023-04-09T12:14:48.006Z,13.03
2023-04-09T12:17:34.591Z,12.94
2023-04-09T12:20:39.685Z,13.17
2023-04-09T12:23:25.975Z,13.18
2023-04-09T12:26:13.211Z,13.31
2023-04-09T12:28:58.651Z,13.23
2023-04-09T12:31:46.352Z,13.44
2023-04-09T12:34:32.698Z,12.65
2023-04-09T12:37:19.064Z,13.34
2023-04-09T12:40:05.599Z,13.33
2023-04-09T12:42:51.793Z,13.23
2023-04-09T12:45:37.876Z,13.17
2023-04-09T12:48:24.422Z,13.30
2023-04-09T12:51:16.977Z,13.33
2023-04-09T12:54:04.136Z,13.14
2023-04-09T12:56:50.314Z,13.24
2023-04-09T12:59:36.096Z,13.18
2023-04-09T13:02:21.954Z,13.19
2023-04-09T13:05:07.802Z,13.27
2023-04-09T13:07:53.702Z,12.54
2023-04-09T13:10:40.321Z,13.35
2023-04-09T13:13:26.927Z,13.39
2023-04-09T13:16:12.639Z,13.32
2023-04-09T13:18:58.087Z,13.42
2023-04-09T13:21:43.642Z,13.44
2023-04-09T13:24:29.266Z,13.40
2023-04-09T13:27:16.519Z,13.45
2023-04-09T13:30:02.963Z,13.55
2023-04-09T13:32:48.459Z,13.49
2023-04-09T13:35:34.165Z,13.58
2023-04-09T13:38:19.772Z,13.58
2023-04-09T13:41:06.182Z,13.57
2023-04-09T13:43:51.868Z,13.57
2023-04-09T13:46:37.477Z,13.00
2023-04-09T13:49:23.730Z,13.59
2023-04-09T13:52:10.712Z,13.56
2023-04-09T13:54:56.707Z,13.31
2023-04-09T13:57:42.556Z,13.55
2023-04-09T14:00:27.827Z,13.52
2023-04-09T14:03:14.419Z,13.51
2023-04-09T14:05:59.867Z,10.57
2023-04-09T14:08:45.452Z,13.43
2023-04-09T14:11:31.564Z,13.24
2023-04-09T14:14:18.082Z,13.15
2023-04-09T14:17:03.994Z,12.24
2023-04-09T14:19:50.431Z,12.95
2023-04-09T14:22:36.392Z,13.11
2023-04-09T14:25:22.288Z,12.90
2023-04-09T14:28:08.069Z,13.00
2023-04-09T14:30:53.402Z,12.97
2023-04-09T14:33:39.157Z,13.00
2023-04-09T14:36:27.653Z,13.02
2023-04-09T14:39:15.057Z,13.03
2023-04-09T14:42:02.315Z,11.92
2023-04-09T14:44:48.325Z,11.91
2023-04-09T14:47:33.954Z,13.07
2023-04-09T14:50:19.790Z,12.90
2023-04-09T14:53:05.460Z,13.07
2023-04-09T14:55:51.122Z,13.06
2023-04-09T14:58:36.781Z,12.95
2023-04-09T15:01:22.966Z,13.05
2023-04-09T15:04:08.766Z,13.12
2023-04-09T15:06:55.032Z,13.11
2023-04-09T15:09:41.060Z,13.11
2023-04-09T15:12:33.820Z,13.11
2023-04-09T15:15:22.295Z,13.06
2023-04-09T15:18:08.185Z,13.05
2023-04-09T15:20:53.802Z,12.86
2023-04-09T15:23:39.243Z,12.89
2023-04-09T15:26:27.964Z,12.93
2023-04-09T15:29:13.715Z,12.92
2023-04-09T15:31:59.533Z,12.75
2023-04-09T15:34:45.060Z,12.79
2023-04-09T15:37:30.718Z,12.84
2023-04-09T15:40:16.434Z,11.79
2023-04-09T15:43:02.132Z,12.71
2023-04-09T15:45:51.554Z,12.51
2023-04-09T15:48:37.793Z,12.46
2023-04-09T15:51:23.116Z,12.64
2023-04-09T15:54:08.716Z,12.55
2023-04-09T15:56:54.092Z,12.60
2023-04-09T15:59:39.853Z,12.52
2023-04-09T16:02:33.922Z,12.38
2023-04-09T16:05:41.057Z,12.48
2023-04-09T16:08:28.080Z,12.46
2023-04-09T16:11:13.563Z,12.42
2023-04-09T16:14:01.599Z,12.40
2023-04-09T16:16:52.255Z,12.37
2023-04-09T16:19:37.978Z,12.33
2023-04-09T16:22:30.208Z,12.33
2023-04-09T16:25:21.363Z,12.32
2023-04-09T16:28:10.048Z,12.32
2023-04-09T16:30:56.064Z,12.24
2023-04-09T16:33:41.580Z,12.11
2023-04-09T16:36:28.118Z,12.28
2023-04-09T16:39:15.603Z,12.29
2023-04-09T16:42:01.845Z,12.28
2023-04-09T16:44:47.289Z,12.29
2023-04-09T16:47:33.396Z,12.16
2023-04-09T16:50:20.669Z,12.26
2023-04-09T16:53:06.586Z,12.19
2023-04-09T16:55:52.032Z,12.16
2023-04-09T16:58:37.851Z,12.10
2023-04-09T17:01:23.586Z,11.99
2023-04-09T17:04:09.669Z,11.98
2023-04-09T17:06:55.258Z,12.00
2023-04-09T17:09:41.711Z,10.82
2023-04-09T17:12:28.478Z,12.00
2023-04-09T17:15:15.808Z,12.02
2023-04-09T17:18:02.407Z,10.79
2023-04-09T17:20:49.605Z,11.98
2023-04-09T17:23:35.191Z,11.82
2023-04-09T17:26:20.892Z,11.92
2023-04-09T17:29:07.269Z,12.18
2023-04-09T17:31:53.296Z,12.24
2023-04-09T17:34:38.757Z,12.15
2023-04-09T17:37:24.369Z,12.14
2023-04-09T17:40:12.368Z,12.15
2023-04-09T17:42:58.048Z,11.42
2023-04-09T17:45:43.450Z,11.98
2023-04-09T17:48:31.465Z,11.17
2023-04-09T17:51:19.691Z,12.03
2023-04-09T17:54:05.473Z,11.82
2023-04-09T17:56:52.125Z,11.94
2023-04-09T17:59:38.434Z,11.73
2023-04-09T18:02:23.993Z,11.29
2023-04-09T18:05:10.216Z,11.84
2023-04-09T18:07:56.723Z,11.71
2023-04-09T18:10:42.578Z,11.74
2023-04-09T18:13:28.747Z,11.64
2023-04-09T18:16:14.412Z,11.68
2023-04-09T18:18:59.986Z,11.65
2023-04-09T18:21:45.626Z,11.72
2023-04-09T18:24:32.781Z,11.72
2023-04-09T18:27:18.263Z,11.60
2023-04-09T18:30:04.742Z,11.42
2023-04-09T18:32:51.751Z,10.44
2023-04-09T18:35:38.259Z,11.55
2023-04-09T18:38:24.392Z,11.36
2023-04-09T18:41:12.458Z,11.30
2023-04-09T18:43:57.941Z,11.36
2023-04-09T18:46:44.040Z,11.45
2023-04-09T18:49:31.577Z,11.28
2023-04-09T18:52:17.185Z,11.39
2023-04-09T18:55:02.883Z,11.51
2023-04-09T18:57:48.844Z,11.32
2023-04-09T19:00:35.795Z,11.41
2023-04-09T19:03:22.131Z,11.38
2023-04-09T19:06:19.456Z,11.32
2023-04-09T19:09:05.862Z,11.23
2023-04-09T19:11:51.684Z,11.02
2023-04-09T19:14:37.529Z,11.14
2023-04-09T19:17:23.345Z,11.20
2023-04-09T19:20:09.070Z,11.11
2023-04-09T19:22:55.581Z,11.21
2023-04-09T19:25:41.227Z,11.25
2023-04-09T19:28:27.510Z,11.19
2023-04-09T19:31:14.661Z,11.08
2023-04-09T19:34:00.678Z,9.67
2023-04-09T19:36:46.835Z,10.81
2023-04-09T19:39:32.595Z,10.71
2023-04-09T19:42:19.300Z,10.52
2023-04-09T19:45:05.825Z,10.31
2023-04-09T19:47:52.518Z,9.25
2023-04-09T19:50:43.892Z,10.49
2023-04-09T19:53:30.950Z,9.40
2023-04-09T19:56:17.014Z,10.13
2023-04-09T19:59:04.016Z,10.05
2023-04-09T20:01:49.359Z,8.74
2023-04-09T20:04:35.418Z,9.72
2023-04-09T20:07:20.870Z,9.81
2023-04-09T20:10:07.572Z,9.53
2023-04-09T20:12:54.013Z,9.59
2023-04-09T20:15:39.690Z,9.58
2023-04-09T20:18:25.283Z,9.55
2023-04-09T20:21:14.332Z,9.49
2023-04-09T20:24:00.635Z,8.27
2023-04-09T20:26:47.738Z,9.32
2023-04-09T20:29:33.945Z,9.34
2023-04-09T20:32:19.952Z,9.50
2023-04-09T20:35:08.316Z,8.27
2023-04-09T20:37:55.123Z,9.48
2023-04-09T20:40:40.674Z,9.42
2023-04-09T20:43:26.371Z,9.27
2023-04-09T20:46:12.452Z,9.31
2023-04-09T20:48:58.349Z,9.20
2023-04-09T20:51:44.645Z,9.20
2023-04-09T20:54:30.877Z,8.99
2023-04-09T20:57:16.438Z,9.12
2023-04-09T21:00:02.133Z,9.15
2023-04-09T21:02:47.830Z,8.99
2023-04-09T21:05:33.464Z,7.95
2023-04-09T21:08:18.861Z,9.14
2023-04-09T21:11:04.601Z,9.21
2023-04-09T21:13:54.448Z,8.20
2023-04-09T21:16:40.999Z,9.30
2023-04-09T21:19:26.536Z,9.37
2023-04-09T21:22:12.125Z,9.37
2023-04-09T21:24:57.557Z,9.38
2023-04-09T21:27:42.847Z,9.46
2023-04-09T21:30:29.192Z,9.49
2023-04-09T21:33:14.496Z,9.23
2023-04-09T21:36:00.140Z,9.32
2023-04-09T21:38:45.737Z,9.25
2023-04-09T21:41:31.409Z,9.25
2023-04-09T21:44:17.193Z,9.33
2023-04-09T21:47:07.525Z,9.23
2023-04-09T21:49:54.098Z,9.21
2023-04-09T21:52:39.930Z,8.04
2023-04-09T21:55:25.353Z,9.27
2023-04-09T21:58:12.002Z,8.33
2023-04-09T22:00:57.482Z,9.26
2023-04-09T22:03:44.873Z,9.00
2023-04-09T22:06:31.053Z,9.08
2023-04-09T22:09:16.926Z,8.84
2023-04-09T22:12:03.048Z,8.94
2023-04-09T22:14:49.129Z,8.94
2023-04-09T22:17:34.591Z,8.96
2023-04-09T22:20:20.133Z,8.92
2023-04-09T22:23:05.451Z,8.91
2023-04-09T22:25:50.940Z,7.89
2023-04-09T22:28:36.362Z,7.69
2023-04-09T22:31:22.031Z,7.67
2023-04-09T22:34:20.076Z,8.79
2023-04-09T22:37:06.968Z,7.61
2023-04-09T22:39:52.319Z,8.92
2023-04-09T22:42:37.744Z,8.07
2023-04-09T22:45:23.017Z,8.73
2023-04-09T22:48:08.873Z,8.92
2023-04-09T22:50:54.638Z,7.69
2023-04-09T22:53:43.048Z,8.90
2023-04-09T22:56:28.817Z,8.89
2023-04-09T22:59:15.598Z,8.83
2023-04-09T23:02:01.327Z,8.14
2023-04-09T23:04:48.216Z,8.50
2023-04-09T23:07:34.019Z,8.66
2023-04-09T23:10:19.791Z,7.35
2023-04-09T23:13:05.313Z,8.46
2023-04-09T23:15:51.046Z,8.59
2023-04-09T23:18:37.162Z,8.35
2023-04-09T23:21:22.578Z,8.52
2023-04-09T23:24:07.963Z,8.35
2023-04-09T23:26:53.589Z,7.49
2023-04-09T23:29:38.887Z,8.35
2023-04-09T23:32:24.905Z,8.34
2023-04-09T23:35:11.465Z,7.64
2023-04-09T23:37:56.997Z,8.32
2023-04-09T23:40:43.077Z,8.25
2023-04-09T23:43:28.786Z,7.19
2023-04-09T23:46:14.475Z,8.34
2023-04-09T23:49:00.378Z,8.31
2023-04-09T23:51:46.251Z,8.25
2023-04-09T23:54:32.710Z,8.36
2023-04-09T23:57:18.287Z,8.34
